CheckWX is a tool to help pilots better visualize weather data.  It is not intended as a substitute for an official pre-flight weather briefing.

20:55:19 UTC

HESN METAR
Aswan International Airport
Aswan, Egypt
Current

2 hours ago

HESN 281900Z 01008KT CAVOK 18/M08 Q1018 NOSIG
Observed
Jan-28 @ 19:00 UTC
Wind
  • 010° at 8 KTS
Visibility
10,000+ meters
Flight Rules
VFR
Cloud Levels
  • Clear skies
Temperature
18°C / 64°F
Dewpoint
-8°C / 18°F
Humidity
16%
Altimeter
30.06" Hg
Pressure
1017.92 hPa
Previous

3 hours ago

HESN 281800Z 01008KT CAVOK 19/M05 Q1018 NOSIG
Observed
Jan-28 @ 18:00 UTC
Wind
  • 010° at 8 KTS
Visibility
10,000+ meters
Flight Rules
VFR
Cloud Levels
  • Clear skies
Temperature
19°C / 66°F
Dewpoint
-5°C / 23°F
Humidity
19%
Altimeter
30.06" Hg
Pressure
1017.92 hPa
Previous

4 hours ago

HESN 281700Z 01007KT CAVOK 20/M06 Q1017 NOSIG
Observed
Jan-28 @ 17:00 UTC
Wind
  • 010° at 7 KTS
Visibility
10,000+ meters
Flight Rules
VFR
Cloud Levels
  • Clear skies
Temperature
20°C / 68°F
Dewpoint
-6°C / 21°F
Humidity
17%
Altimeter
30.03" Hg
Pressure
1016.92 hPa